sensor_id;sensor_type;location;lat;lon;timestamp;pressure;altitude;pressure_sealevel;temperature;humidity
19108;BME280;9686;48.832;9.126;2022-07-12T00:00:03;98792.88;;;18.81;100.00
19108;BME280;9686;48.832;9.126;2022-07-12T00:02:29;98796.63;;;18.74;100.00
19108;BME280;9686;48.832;9.126;2022-07-12T00:04:54;98794.84;;;18.73;100.00
19108;BME280;9686;48.832;9.126;2022-07-12T00:07:20;98799.97;;;18.79;100.00
19108;BME280;9686;48.832;9.126;2022-07-12T00:09:45;98802.91;;;18.68;100.00
19108;BME280;9686;48.832;9.126;2022-07-12T00:12:10;98805.56;;;18.68;100.00
19108;BME280;9686;48.832;9.126;2022-07-12T00:14:36;98807.47;;;18.62;100.00
19108;BME280;9686;48.832;9.126;2022-07-12T00:17:01;98809.41;;;18.57;100.00
19108;BME280;9686;48.832;9.126;2022-07-12T00:19:29;98812.53;;;18.38;100.00
19108;BME280;9686;48.832;9.126;2022-07-12T00:24:29;98815.72;;;18.18;100.00
19108;BME280;9686;48.832;9.126;2022-07-12T00:26:55;98808.84;;;18.13;100.00
19108;BME280;9686;48.832;9.126;2022-07-12T00:29:20;98805.97;;;18.22;100.00
19108;BME280;9686;48.832;9.126;2022-07-12T00:31:45;98813.25;;;18.12;100.00
19108;BME280;9686;48.832;9.126;2022-07-12T00:34:11;98813.84;;;18.24;100.00
19108;BME280;9686;48.832;9.126;2022-07-12T00:36:39;98806.84;;;18.21;100.00
19108;BME280;9686;48.832;9.126;2022-07-12T00:39:04;98805.66;;;18.33;100.00
19108;BME280;9686;48.832;9.126;2022-07-12T00:41:30;98807.22;;;18.40;100.00
19108;BME280;9686;48.832;9.126;2022-07-12T00:43:55;98808.22;;;18.36;100.00
19108;BME280;9686;48.832;9.126;2022-07-12T00:46:22;98799.47;;;18.34;100.00
19108;BME280;9686;48.832;9.126;2022-07-12T00:48:48;98803.03;;;18.33;100.00
19108;BME280;9686;48.832;9.126;2022-07-12T00:51:13;98796.78;;;18.35;100.00
19108;BME280;9686;48.832;9.126;2022-07-12T00:53:39;98798.69;;;18.30;100.00
19108;BME280;9686;48.832;9.126;2022-07-12T00:56:04;98799.34;;;18.38;100.00
19108;BME280;9686;48.832;9.126;2022-07-12T00:58:30;98803.06;;;18.31;100.00
19108;BME280;9686;48.832;9.126;2022-07-12T01:00:56;98798.75;;;18.29;100.00
19108;BME280;9686;48.832;9.126;2022-07-12T01:03:22;98809.47;;;18.23;100.00
19108;BME280;9686;48.832;9.126;2022-07-12T01:05:47;98808.00;;;18.43;100.00
19108;BME280;9686;48.832;9.126;2022-07-12T01:08:14;98803.72;;;18.39;100.00
19108;BME280;9686;48.832;9.126;2022-07-12T01:10:40;98812.28;;;18.47;100.00
19108;BME280;9686;48.832;9.126;2022-07-12T01:13:06;98804.41;;;18.46;100.00
19108;BME280;9686;48.832;9.126;2022-07-12T01:15:32;98800.66;;;18.55;100.00
19108;BME280;9686;48.832;9.126;2022-07-12T01:18:01;98802.56;;;18.49;100.00
19108;BME280;9686;48.832;9.126;2022-07-12T01:20:27;98803.44;;;18.50;100.00
19108;BME280;9686;48.832;9.126;2022-07-12T01:22:56;98807.66;;;18.56;100.00
19108;BME280;9686;48.832;9.126;2022-07-12T01:25:25;98807.75;;;18.53;100.00
19108;BME280;9686;48.832;9.126;2022-07-12T01:27:51;98813.28;;;18.43;100.00
19108;BME280;9686;48.832;9.126;2022-07-12T01:30:16;98809.47;;;18.23;100.00
19108;BME280;9686;48.832;9.126;2022-07-12T01:32:42;98809.31;;;18.29;100.00
19108;BME280;9686;48.832;9.126;2022-07-12T01:35:08;98807.75;;;18.22;100.00
19108;BME280;9686;48.832;9.126;2022-07-12T01:37:39;98805.50;;;18.39;100.00
19108;BME280;9686;48.832;9.126;2022-07-12T01:40:07;98805.88;;;18.25;100.00
19108;BME280;9686;48.832;9.126;2022-07-12T01:42:33;98809.56;;;18.18;100.00
19108;BME280;9686;48.832;9.126;2022-07-12T01:44:59;98802.06;;;18.04;100.00
19108;BME280;9686;48.832;9.126;2022-07-12T01:47:27;98803.69;;;18.08;100.00
19108;BME280;9686;48.832;9.126;2022-07-12T01:49:52;98800.53;;;17.96;100.00
19108;BME280;9686;48.832;9.126;2022-07-12T01:52:19;98802.47;;;17.87;100.00
19108;BME280;9686;48.832;9.126;2022-07-12T01:55:19;98801.13;;;17.73;100.00
19108;BME280;9686;48.832;9.126;2022-07-12T01:57:45;98799.56;;;17.63;100.00
19108;BME280;9686;48.832;9.126;2022-07-12T02:00:12;98795.22;;;17.60;100.00
19108;BME280;9686;48.832;9.126;2022-07-12T02:02:37;98794.22;;;17.66;100.00
19108;BME280;9686;48.832;9.126;2022-07-12T02:05:04;98800.47;;;17.62;100.00
19108;BME280;9686;48.832;9.126;2022-07-12T02:07:30;98801.34;;;17.62;100.00
19108;BME280;9686;48.832;9.126;2022-07-12T02:09:55;98810.53;;;17.46;100.00
19108;BME280;9686;48.832;9.126;2022-07-12T02:12:21;98809.78;;;17.39;100.00
19108;BME280;9686;48.832;9.126;2022-07-12T02:14:46;98809.09;;;17.33;100.00
19108;BME280;9686;48.832;9.126;2022-07-12T02:17:12;98814.00;;;17.48;100.00
19108;BME280;9686;48.832;9.126;2022-07-12T02:19:37;98805.28;;;17.46;100.00
19108;BME280;9686;48.832;9.126;2022-07-12T02:22:02;98803.78;;;17.34;100.00
19108;BME280;9686;48.832;9.126;2022-07-12T02:24:28;98813.25;;;17.41;100.00
19108;BME280;9686;48.832;9.126;2022-07-12T02:26:53;98802.19;;;17.27;100.00
19108;BME280;9686;48.832;9.126;2022-07-12T02:29:19;98798.78;;;17.23;100.00
19108;BME280;9686;48.832;9.126;2022-07-12T02:31:44;98790.97;;;17.19;100.00
19108;BME280;9686;48.832;9.126;2022-07-12T02:34:09;98787.63;;;17.11;100.00
19108;BME280;9686;48.832;9.126;2022-07-12T02:36:34;98794.53;;;17.16;100.00
19108;BME280;9686;48.832;9.126;2022-07-12T02:39:01;98798.31;;;17.05;100.00
19108;BME280;9686;48.832;9.126;2022-07-12T02:41:32;98797.44;;;17.04;100.00
19108;BME280;9686;48.832;9.126;2022-07-12T02:43:58;98798.03;;;17.17;100.00
19108;BME280;9686;48.832;9.126;2022-07-12T02:46:24;98796.63;;;17.02;100.00
19108;BME280;9686;48.832;9.126;2022-07-12T02:48:49;98805.47;;;17.00;100.00
19108;BME280;9686;48.832;9.126;2022-07-12T02:51:14;98806.50;;;16.92;100.00
19108;BME280;9686;48.832;9.126;2022-07-12T02:53:40;98807.47;;;16.87;100.00
19108;BME280;9686;48.832;9.126;2022-07-12T02:56:05;98808.44;;;16.83;100.00
19108;BME280;9686;48.832;9.126;2022-07-12T02:58:31;98794.44;;;16.81;100.00
19108;BME280;9686;48.832;9.126;2022-07-12T03:00:56;98794.41;;;16.82;100.00
19108;BME280;9686;48.832;9.126;2022-07-12T03:03:21;98797.22;;;16.75;100.00
19108;BME280;9686;48.832;9.126;2022-07-12T03:05:47;98800.94;;;16.63;100.00
19108;BME280;9686;48.832;9.126;2022-07-12T03:08:12;98803.78;;;16.52;100.00
19108;BME280;9686;48.832;9.126;2022-07-12T03:10:39;98805.44;;;16.58;100.00
19108;BME280;9686;48.832;9.126;2022-07-12T03:13:05;98810.66;;;16.59;100.00
19108;BME280;9686;48.832;9.126;2022-07-12T03:15:31;98807.03;;;16.65;100.00
19108;BME280;9686;48.832;9.126;2022-07-12T03:17:58;98815.63;;;16.76;100.00
19108;BME280;9686;48.832;9.126;2022-07-12T03:20:24;98824.22;;;16.84;100.00
19108;BME280;9686;48.832;9.126;2022-07-12T03:22:49;98818.56;;;16.59;100.00
19108;BME280;9686;48.832;9.126;2022-07-12T03:25:17;98817.44;;;16.74;100.00
19108;BME280;9686;48.832;9.126;2022-07-12T03:27:43;98826.19;;;16.75;100.00
19108;BME280;9686;48.832;9.126;2022-07-12T03:30:08;98821.25;;;16.56;100.00
19108;BME280;9686;48.832;9.126;2022-07-12T03:32:35;98828.09;;;16.68;100.00
19108;BME280;9686;48.832;9.126;2022-07-12T03:35:00;98824.63;;;16.66;100.00
19108;BME280;9686;48.832;9.126;2022-07-12T03:37:26;98831.75;;;16.58;100.00
19108;BME280;9686;48.832;9.126;2022-07-12T03:39:51;98827.38;;;16.57;100.00
19108;BME280;9686;48.832;9.126;2022-07-12T03:42:18;98841.28;;;16.63;100.00
19108;BME280;9686;48.832;9.126;2022-07-12T03:44:44;98842.16;;;16.67;100.00
19108;BME280;9686;48.832;9.126;2022-07-12T03:47:09;98840.69;;;16.51;100.00
19108;BME280;9686;48.832;9.126;2022-07-12T03:49:35;98843.19;;;16.57;100.00
19108;BME280;9686;48.832;9.126;2022-07-12T03:52:00;98849.19;;;16.63;100.00
19108;BME280;9686;48.832;9.126;2022-07-12T03:54:28;98843.16;;;16.58;100.00
19108;BME280;9686;48.832;9.126;2022-07-12T03:56:53;98848.44;;;16.57;100.00
19108;BME280;9686;48.832;9.126;2022-07-12T03:59:37;98856.56;;;16.46;100.00
19108;BME280;9686;48.832;9.126;2022-07-12T04:02:02;98861.78;;;16.49;100.00
19108;BME280;9686;48.832;9.126;2022-07-12T04:04:28;98858.31;;;16.47;100.00
19108;BME280;9686;48.832;9.126;2022-07-12T04:06:53;98854.06;;;16.40;100.00
19108;BME280;9686;48.832;9.126;2022-07-12T04:09:39;98854.91;;;16.42;100.00
19108;BME280;9686;48.832;9.126;2022-07-12T04:12:05;98873.84;;;16.59;100.00
19108;BME280;9686;48.832;9.126;2022-07-12T04:14:30;98870.38;;;16.57;100.00
19108;BME280;9686;48.832;9.126;2022-07-12T04:16:56;98866.72;;;16.64;100.00
19108;BME280;9686;48.832;9.126;2022-07-12T04:19:21;98868.47;;;16.67;100.00
19108;BME280;9686;48.832;9.126;2022-07-12T04:21:50;98867.81;;;16.54;100.00
19108;BME280;9686;48.832;9.126;2022-07-12T04:24:15;98863.19;;;16.69;100.00
19108;BME280;9686;48.832;9.126;2022-07-12T04:26:40;98862.38;;;16.62;100.00
19108;BME280;9686;48.832;9.126;2022-07-12T04:29:06;98865.25;;;16.51;100.00
19108;BME280;9686;48.832;9.126;2022-07-12T04:31:32;98856.13;;;16.71;100.00
19108;BME280;9686;48.832;9.126;2022-07-12T04:33:57;98858.66;;;16.75;100.00
19108;BME280;9686;48.832;9.126;2022-07-12T04:36:22;98863.69;;;16.86;100.00
19108;BME280;9686;48.832;9.126;2022-07-12T04:38:48;98870.56;;;16.94;100.00
19108;BME280;9686;48.832;9.126;2022-07-12T04:41:13;98869.66;;;16.95;100.00
19108;BME280;9686;48.832;9.126;2022-07-12T04:43:38;98863.31;;;17.04;100.00
19108;BME280;9686;48.832;9.126;2022-07-12T04:46:08;98858.25;;;16.95;100.00
19108;BME280;9686;48.832;9.126;2022-07-12T04:48:34;98860.97;;;16.89;100.00
19108;BME280;9686;48.832;9.126;2022-07-12T04:50:59;98859.56;;;16.74;100.00
19108;BME280;9686;48.832;9.126;2022-07-12T04:53:24;98860.31;;;16.79;100.00
19108;BME280;9686;48.832;9.126;2022-07-12T04:55:50;98853.22;;;16.83;100.00
19108;BME280;9686;48.832;9.126;2022-07-12T04:58:15;98858.97;;;17.02;100.00
19108;BME280;9686;48.832;9.126;2022-07-12T05:00:46;98859.56;;;17.14;100.00
19108;BME280;9686;48.832;9.126;2022-07-12T05:03:12;98858.63;;;17.18;100.00
19108;BME280;9686;48.832;9.126;2022-07-12T05:05:37;98862.13;;;17.17;100.00
19108;BME280;9686;48.832;9.126;2022-07-12T05:08:03;98862.78;;;17.29;100.00
19108;BME280;9686;48.832;9.126;2022-07-12T05:10:29;98870.53;;;17.35;100.00
19108;BME280;9686;48.832;9.126;2022-07-12T05:12:55;98872.34;;;17.33;100.00
19108;BME280;9686;48.832;9.126;2022-07-12T05:15:20;98868.72;;;17.37;100.00
19108;BME280;9686;48.832;9.126;2022-07-12T05:17:46;98869.22;;;17.54;100.00
19108;BME280;9686;48.832;9.126;2022-07-12T05:20:11;98875.34;;;17.54;100.00
19108;BME280;9686;48.832;9.126;2022-07-12T05:22:36;98878.78;;;17.58;100.00
19108;BME280;9686;48.832;9.126;2022-07-12T05:25:02;98875.75;;;17.76;100.00
19108;BME280;9686;48.832;9.126;2022-07-12T05:27:28;98876.34;;;17.87;100.00
19108;BME280;9686;48.832;9.126;2022-07-12T05:29:53;98879.88;;;17.86;100.00
19108;BME280;9686;48.832;9.126;2022-07-12T05:32:18;98877.16;;;17.90;100.00
19108;BME280;9686;48.832;9.126;2022-07-12T05:34:44;98879.81;;;17.90;100.00
19108;BME280;9686;48.832;9.126;2022-07-12T05:37:12;98878.78;;;17.95;100.00
19108;BME280;9686;48.832;9.126;2022-07-12T05:39:37;98880.25;;;18.07;100.00
19108;BME280;9686;48.832;9.126;2022-07-12T05:42:02;98884.66;;;18.06;100.00
19108;BME280;9686;48.832;9.126;2022-07-12T05:44:28;98885.50;;;18.08;100.00
19108;BME280;9686;48.832;9.126;2022-07-12T05:46:53;98885.25;;;18.17;100.00
19108;BME280;9686;48.832;9.126;2022-07-12T05:49:18;98886.03;;;18.23;100.00
19108;BME280;9686;48.832;9.126;2022-07-12T05:51:44;98893.78;;;18.29;100.00
19108;BME280;9686;48.832;9.126;2022-07-12T05:54:27;98894.38;;;18.38;100.00
19108;BME280;9686;48.832;9.126;2022-07-12T05:56:53;98892.34;;;18.49;100.00
19108;BME280;9686;48.832;9.126;2022-07-12T05:59:18;98897.44;;;18.56;100.00
19108;BME280;9686;48.832;9.126;2022-07-12T06:01:43;98901.69;;;18.63;100.00
19108;BME280;9686;48.832;9.126;2022-07-12T06:04:09;98902.47;;;18.66;100.00
19108;BME280;9686;48.832;9.126;2022-07-12T06:06:34;98901.59;;;18.66;100.00
19108;BME280;9686;48.832;9.126;2022-07-12T06:09:00;98905.78;;;18.73;100.00
19108;BME280;9686;48.832;9.126;2022-07-12T06:11:25;98901.13;;;18.83;100.00
19108;BME280;9686;48.832;9.126;2022-07-12T06:13:51;98903.22;;;19.02;100.00
19108;BME280;9686;48.832;9.126;2022-07-12T06:16:16;98900.22;;;19.15;100.00
19108;BME280;9686;48.832;9.126;2022-07-12T06:18:42;98900.84;;;19.23;100.00
19108;BME280;9686;48.832;9.126;2022-07-12T06:21:07;98911.78;;;19.40;100.00
19108;BME280;9686;48.832;9.126;2022-07-12T06:23:33;98909.72;;;19.50;100.00
19108;BME280;9686;48.832;9.126;2022-07-12T06:25:58;98920.22;;;19.54;100.00
19108;BME280;9686;48.832;9.126;2022-07-12T06:28:23;98917.50;;;19.56;100.00
19108;BME280;9686;48.832;9.126;2022-07-12T06:30:49;98919.03;;;19.63;100.00
19108;BME280;9686;48.832;9.126;2022-07-12T06:33:14;98919.34;;;19.54;100.00
19108;BME280;9686;48.832;9.126;2022-07-12T06:35:39;98916.41;;;19.63;100.00
19108;BME280;9686;48.832;9.126;2022-07-12T06:38:05;98905.50;;;19.72;100.00
19108;BME280;9686;48.832;9.126;2022-07-12T06:40:30;98912.50;;;19.75;100.00
19108;BME280;9686;48.832;9.126;2022-07-12T06:42:56;98914.91;;;19.82;100.00
19108;BME280;9686;48.832;9.126;2022-07-12T06:45:22;98917.41;;;19.87;100.00
19108;BME280;9686;48.832;9.126;2022-07-12T06:47:47;98918.81;;;19.97;100.00
19108;BME280;9686;48.832;9.126;2022-07-12T06:50:12;98920.38;;;20.04;100.00
19108;BME280;9686;48.832;9.126;2022-07-12T06:52:38;98917.53;;;20.10;100.00
19108;BME280;9686;48.832;9.126;2022-07-12T06:55:03;98914.88;;;20.10;100.00
19108;BME280;9686;48.832;9.126;2022-07-12T06:57:29;98915.63;;;20.14;100.00
19108;BME280;9686;48.832;9.126;2022-07-12T07:10:25;98918.31;;;20.39;100.00
19108;BME280;9686;48.832;9.126;2022-07-12T07:12:51;98938.53;;;20.43;100.00
19108;BME280;9686;48.832;9.126;2022-07-12T07:15:16;98932.19;;;20.47;100.00
19108;BME280;9686;48.832;9.126;2022-07-12T07:17:42;98933.81;;;20.51;100.00
19108;BME280;9686;48.832;9.126;2022-07-12T07:20:11;98932.38;;;20.67;100.00
19108;BME280;9686;48.832;9.126;2022-07-12T07:22:37;98939.94;;;20.78;100.00
19108;BME280;9686;48.832;9.126;2022-07-12T07:25:04;98936.97;;;20.87;100.00
19108;BME280;9686;48.832;9.126;2022-07-12T07:27:29;98944.69;;;20.93;100.00
19108;BME280;9686;48.832;9.126;2022-07-12T07:37:40;98947.00;;;21.50;100.00
19108;BME280;9686;48.832;9.126;2022-07-12T07:40:17;98945.56;;;21.65;100.00
19108;BME280;9686;48.832;9.126;2022-07-12T07:42:43;98939.00;;;21.74;95.61
19108;BME280;9686;48.832;9.126;2022-07-12T07:45:08;98943.78;;;21.88;94.86
19108;BME280;9686;48.832;9.126;2022-07-12T07:47:46;98945.50;;;21.89;91.01
19108;BME280;9686;48.832;9.126;2022-07-12T07:50:13;98946.25;;;21.92;93.30
19108;BME280;9686;48.832;9.126;2022-07-12T07:52:38;98948.66;;;21.98;97.48
19108;BME280;9686;48.832;9.126;2022-07-12T07:55:04;98953.00;;;22.23;89.01
19108;BME280;9686;48.832;9.126;2022-07-12T07:57:30;98945.56;;;22.09;92.78
19108;BME280;9686;48.832;9.126;2022-07-12T08:10:57;98937.31;;;22.37;92.42
19108;BME280;9686;48.832;9.126;2022-07-12T08:13:23;98928.06;;;22.47;90.87
19108;BME280;9686;48.832;9.126;2022-07-12T08:15:48;98934.91;;;22.53;88.25
19108;BME280;9686;48.832;9.126;2022-07-12T08:18:14;98931.22;;;22.35;88.02
19108;BME280;9686;48.832;9.126;2022-07-12T08:20:40;98931.97;;;22.38;90.56
19108;BME280;9686;48.832;9.126;2022-07-12T08:23:05;98932.78;;;22.40;93.31
19108;BME280;9686;48.832;9.126;2022-07-12T08:25:30;98938.88;;;22.42;88.88
19108;BME280;9686;48.832;9.126;2022-07-12T08:27:56;98935.50;;;22.59;87.70
19108;BME280;9686;48.832;9.126;2022-07-12T08:30:22;98934.84;;;22.74;81.03
19108;BME280;9686;48.832;9.126;2022-07-12T08:32:47;98927.66;;;22.76;79.28
19108;BME280;9686;48.832;9.126;2022-07-12T08:35:13;98925.69;;;22.82;77.19
19108;BME280;9686;48.832;9.126;2022-07-12T08:37:42;98929.78;;;22.89;79.94
19108;BME280;9686;48.832;9.126;2022-07-12T08:43:29;98927.41;;;23.03;80.59
19108;BME280;9686;48.832;9.126;2022-07-12T08:46:06;98931.09;;;23.19;70.27
19108;BME280;9686;48.832;9.126;2022-07-12T08:56:30;98954.56;;;23.10;68.53
19108;BME280;9686;48.832;9.126;2022-07-12T08:59:20;98948.34;;;23.29;64.38
19108;BME280;9686;48.832;9.126;2022-07-12T09:01:53;98950.88;;;23.32;71.03
19108;BME280;9686;48.832;9.126;2022-07-12T09:04:24;98950.19;;;23.48;71.41
19108;BME280;9686;48.832;9.126;2022-07-12T09:06:50;98945.53;;;23.72;64.03
19108;BME280;9686;48.832;9.126;2022-07-12T09:09:34;98959.41;;;23.78;63.45
19108;BME280;9686;48.832;9.126;2022-07-12T09:12:03;98953.09;;;23.81;62.73
19108;BME280;9686;48.832;9.126;2022-07-12T09:14:28;98960.63;;;23.90;63.46
19108;BME280;9686;48.832;9.126;2022-07-12T09:17:03;98946.09;;;23.97;61.02
19108;BME280;9686;48.832;9.126;2022-07-12T10:03:29;98943.38;;;24.16;61.09
19108;BME280;9686;48.832;9.126;2022-07-12T10:05:59;98949.78;;;24.12;63.19
19108;BME280;9686;48.832;9.126;2022-07-12T10:16:12;98953.19;;;24.51;60.70
19108;BME280;9686;48.832;9.126;2022-07-12T10:26:25;98951.91;;;24.58;61.01
19108;BME280;9686;48.832;9.126;2022-07-12T10:49:49;98926.31;;;24.72;54.61
19108;BME280;9686;48.832;9.126;2022-07-12T10:52:16;98924.31;;;24.77;54.33
19108;BME280;9686;48.832;9.126;2022-07-12T10:57:42;98922.88;;;24.87;55.53
19108;BME280;9686;48.832;9.126;2022-07-12T11:02:46;98922.00;;;24.86;53.24
19108;BME280;9686;48.832;9.126;2022-07-12T11:05:11;98928.28;;;24.85;53.47
19108;BME280;9686;48.832;9.126;2022-07-12T11:07:37;98924.44;;;24.91;54.03
19108;BME280;9686;48.832;9.126;2022-07-12T11:12:47;98926.03;;;25.28;53.08
19108;BME280;9686;48.832;9.126;2022-07-12T11:15:12;98926.44;;;25.20;50.89
19108;BME280;9686;48.832;9.126;2022-07-12T11:17:38;98918.16;;;25.09;50.61
19108;BME280;9686;48.832;9.126;2022-07-12T11:20:11;98919.25;;;25.05;52.03
19108;BME280;9686;48.832;9.126;2022-07-12T11:22:40;98927.63;;;25.15;51.40
19108;BME280;9686;48.832;9.126;2022-07-12T11:25:08;98922.97;;;25.18;53.08
19108;BME280;9686;48.832;9.126;2022-07-12T11:27:34;98914.97;;;25.18;57.76
19108;BME280;9686;48.832;9.126;2022-07-12T11:32:40;98909.50;;;25.37;53.03
19108;BME280;9686;48.832;9.126;2022-07-12T11:35:26;98911.16;;;25.56;51.62
19108;BME280;9686;48.832;9.126;2022-07-12T11:37:56;98913.84;;;25.56;50.14
19108;BME280;9686;48.832;9.126;2022-07-12T12:01:23;98918.31;;;26.34;44.38
19108;BME280;9686;48.832;9.126;2022-07-12T12:03:51;98916.22;;;26.23;45.09
19108;BME280;9686;48.832;9.126;2022-07-12T12:06:17;98908.81;;;26.12;44.67
19108;BME280;9686;48.832;9.126;2022-07-12T12:08:42;98911.41;;;26.14;45.45
19108;BME280;9686;48.832;9.126;2022-07-12T12:11:10;98915.31;;;26.08;45.11
19108;BME280;9686;48.832;9.126;2022-07-12T12:13:35;98898.50;;;26.06;47.89
19108;BME280;9686;48.832;9.126;2022-07-12T12:16:03;98891.38;;;26.21;46.44
19108;BME280;9686;48.832;9.126;2022-07-12T12:18:33;98892.91;;;26.25;49.10
19108;BME280;9686;48.832;9.126;2022-07-12T12:21:08;98889.13;;;26.29;50.04
19108;BME280;9686;48.832;9.126;2022-07-12T12:23:34;98886.03;;;26.37;51.02
19108;BME280;9686;48.832;9.126;2022-07-12T12:26:14;98877.41;;;26.62;48.82
19108;BME280;9686;48.832;9.126;2022-07-12T12:28:51;98867.00;;;26.86;48.81
19108;BME280;9686;48.832;9.126;2022-07-12T12:31:21;98868.75;;;27.01;48.36
19108;BME280;9686;48.832;9.126;2022-07-12T12:33:52;98867.66;;;27.46;46.46
19108;BME280;9686;48.832;9.126;2022-07-12T12:36:22;98867.28;;;27.38;45.90
19108;BME280;9686;48.832;9.126;2022-07-12T12:39:08;98870.38;;;27.18;47.04
19108;BME280;9686;48.832;9.126;2022-07-12T12:41:41;98868.38;;;27.07;46.73
19108;BME280;9686;48.832;9.126;2022-07-12T12:44:07;98871.31;;;27.02;44.79
19108;BME280;9686;48.832;9.126;2022-07-12T12:49:43;98873.63;;;27.23;45.53
19108;BME280;9686;48.832;9.126;2022-07-12T12:52:09;98875.06;;;27.00;46.12
19108;BME280;9686;48.832;9.126;2022-07-12T12:54:35;98881.94;;;27.04;44.44
19108;BME280;9686;48.832;9.126;2022-07-12T12:57:02;98874.81;;;26.74;44.97
19108;BME280;9686;48.832;9.126;2022-07-12T13:02:04;98865.75;;;26.77;46.93
19108;BME280;9686;48.832;9.126;2022-07-12T13:04:31;98863.66;;;26.82;46.58
19108;BME280;9686;48.832;9.126;2022-07-12T13:06:57;98867.47;;;26.92;45.34
19108;BME280;9686;48.832;9.126;2022-07-12T13:09:23;98858.41;;;26.95;45.13
19108;BME280;9686;48.832;9.126;2022-07-12T13:11:49;98871.06;;;27.07;44.15
19108;BME280;9686;48.832;9.126;2022-07-12T13:14:14;98868.38;;;27.07;42.63
19108;BME280;9686;48.832;9.126;2022-07-12T13:16:40;98867.97;;;26.99;43.06
19108;BME280;9686;48.832;9.126;2022-07-12T13:19:05;98874.50;;;27.09;43.27
19108;BME280;9686;48.832;9.126;2022-07-12T13:21:31;98871.63;;;27.12;43.12
19108;BME280;9686;48.832;9.126;2022-07-12T13:23:56;98874.00;;;27.17;41.92
19108;BME280;9686;48.832;9.126;2022-07-12T13:26:22;98869.78;;;27.27;42.14
19108;BME280;9686;48.832;9.126;2022-07-12T13:28:55;98868.34;;;27.21;42.58
19108;BME280;9686;48.832;9.126;2022-07-12T13:31:20;98863.88;;;27.22;43.62
19108;BME280;9686;48.832;9.126;2022-07-12T13:33:46;98863.56;;;27.41;43.85
19108;BME280;9686;48.832;9.126;2022-07-12T13:36:12;98859.75;;;27.86;46.21
19108;BME280;9686;48.832;9.126;2022-07-12T13:38:37;98865.31;;;28.75;40.96
19108;BME280;9686;48.832;9.126;2022-07-12T13:41:03;98855.75;;;28.71;40.67
19108;BME280;9686;48.832;9.126;2022-07-12T13:43:29;98866.16;;;28.50;42.34
19108;BME280;9686;48.832;9.126;2022-07-12T13:45:54;98861.16;;;28.31;41.54
19108;BME280;9686;48.832;9.126;2022-07-12T13:48:20;98861.72;;;28.09;41.57
19108;BME280;9686;48.832;9.126;2022-07-12T13:50:47;98870.06;;;27.92;40.76
19108;BME280;9686;48.832;9.126;2022-07-12T13:53:18;98865.34;;;27.69;43.49
19108;BME280;9686;48.832;9.126;2022-07-12T13:55:45;98860.72;;;27.56;44.47
19108;BME280;9686;48.832;9.126;2022-07-12T13:58:11;98863.41;;;27.56;43.89
19108;BME280;9686;48.832;9.126;2022-07-12T14:00:44;98859.88;;;27.56;42.43
19108;BME280;9686;48.832;9.126;2022-07-12T14:03:10;98866.28;;;27.53;44.25
19108;BME280;9686;48.832;9.126;2022-07-12T14:05:35;98860.69;;;27.44;45.54
19108;BME280;9686;48.832;9.126;2022-07-12T14:08:01;98861.84;;;27.40;43.20
19108;BME280;9686;48.832;9.126;2022-07-12T14:10:26;98857.59;;;27.50;41.73
19108;BME280;9686;48.832;9.126;2022-07-12T14:12:52;98870.03;;;27.51;41.65
19108;BME280;9686;48.832;9.126;2022-07-12T14:15:20;98865.44;;;27.53;41.71
19108;BME280;9686;48.832;9.126;2022-07-12T14:18:01;98862.31;;;27.46;39.77
19108;BME280;9686;48.832;9.126;2022-07-12T14:20:26;98864.53;;;27.40;41.98
19108;BME280;9686;48.832;9.126;2022-07-12T14:22:52;98852.38;;;27.34;43.33
19108;BME280;9686;48.832;9.126;2022-07-12T14:25:18;98846.84;;;27.37;42.05
19108;BME280;9686;48.832;9.126;2022-07-12T14:27:43;98847.59;;;27.39;41.66
19108;BME280;9686;48.832;9.126;2022-07-12T14:30:12;98857.19;;;27.56;40.63
19108;BME280;9686;48.832;9.126;2022-07-12T14:32:38;98848.53;;;27.79;39.58
19108;BME280;9686;48.832;9.126;2022-07-12T14:35:05;98846.28;;;27.73;41.66
19108;BME280;9686;48.832;9.126;2022-07-12T14:37:32;98845.56;;;27.84;40.74
19108;BME280;9686;48.832;9.126;2022-07-12T14:39:57;98851.44;;;27.76;40.38
19108;BME280;9686;48.832;9.126;2022-07-12T14:42:23;98845.41;;;27.73;39.22
19108;BME280;9686;48.832;9.126;2022-07-12T14:44:48;98846.22;;;27.60;39.76
19108;BME280;9686;48.832;9.126;2022-07-12T14:47:13;98847.44;;;27.55;39.18
19108;BME280;9686;48.832;9.126;2022-07-12T14:49:40;98846.78;;;27.51;40.88
19108;BME280;9686;48.832;9.126;2022-07-12T14:52:05;98841.31;;;27.53;40.41
19108;BME280;9686;48.832;9.126;2022-07-12T14:54:32;98839.88;;;27.61;39.89
19108;BME280;9686;48.832;9.126;2022-07-12T14:56:57;98829.66;;;27.68;39.03
19108;BME280;9686;48.832;9.126;2022-07-12T14:59:22;98842.28;;;27.52;41.13
19108;BME280;9686;48.832;9.126;2022-07-12T15:01:48;98844.75;;;27.55;39.47
19108;BME280;9686;48.832;9.126;2022-07-12T15:04:14;98833.94;;;27.56;39.90
19108;BME280;9686;48.832;9.126;2022-07-12T15:06:39;98832.22;;;27.55;40.51
19108;BME280;9686;48.832;9.126;2022-07-12T15:09:05;98832.44;;;27.52;40.14
19108;BME280;9686;48.832;9.126;2022-07-12T15:11:30;98830.13;;;27.60;39.32
19108;BME280;9686;48.832;9.126;2022-07-12T15:13:56;98830.25;;;27.86;37.73
19108;BME280;9686;48.832;9.126;2022-07-12T15:16:21;98828.13;;;27.91;38.08
19108;BME280;9686;48.832;9.126;2022-07-12T15:18:47;98825.56;;;28.02;38.24
19108;BME280;9686;48.832;9.126;2022-07-12T15:21:12;98823.00;;;28.01;37.39
19108;BME280;9686;48.832;9.126;2022-07-12T15:23:37;98827.59;;;27.86;37.80
19108;BME280;9686;48.832;9.126;2022-07-12T15:26:03;98821.41;;;27.71;38.90
19108;BME280;9686;48.832;9.126;2022-07-12T15:28:28;98825.28;;;27.80;39.97
19108;BME280;9686;48.832;9.126;2022-07-12T15:30:55;98828.47;;;27.72;39.84
19108;BME280;9686;48.832;9.126;2022-07-12T15:33:20;98826.50;;;27.61;39.50
19108;BME280;9686;48.832;9.126;2022-07-12T15:35:45;98832.72;;;27.48;39.49
19108;BME280;9686;48.832;9.126;2022-07-12T15:38:11;98829.81;;;27.38;39.53
19108;BME280;9686;48.832;9.126;2022-07-12T15:40:37;98820.75;;;27.53;39.49
19108;BME280;9686;48.832;9.126;2022-07-12T15:43:03;98818.59;;;27.46;38.50